Time;durP1;ratioP1;P1;durP2;ratioP2;P2;SDS_P1;SDS_P2;PMS_P1;PMS_P2;Temp;Humidity;BMP_temperature;BMP_pressure;BME280_temperature;BME280_humidity;BME280_pressure;Samples;Min_cycle;Max_cycle;Signal;HPM_P1;HPM_P2
2021/09/13 00:01:15;;;;;;;;;4.75;4.75;;;;;29.25;66.22;98457.78;6276449;22;8775;-75
2021/09/13 00:03:46;;;;;;;;;2.75;2.75;;;;;29.22;65.16;98453.94;6275741;22;8898;-74
2021/09/13 00:06:15;;;;;;;;;3.00;3.00;;;;;29.30;65.47;98466.28;6275697;22;8805;-74
2021/09/13 00:08:43;;;;;;;;;5.75;5.75;;;;;29.13;66.05;98432.63;6249108;22;8872;-74
2021/09/13 00:11:12;;;;;;;;;5.00;5.00;;;;;29.31;66.24;98448.81;6275649;22;8783;-74
2021/09/13 00:13:41;;;;;;;;;4.40;4.40;;;;;29.33;66.14;98446.47;6275725;22;8775;-74
2021/09/13 00:16:09;;;;;;;;;4.80;4.80;;;;;29.25;66.35;98442.25;6275450;22;8782;-74
2021/09/13 00:18:38;;;;;;;;;5.25;5.25;;;;;29.28;65.68;98446.91;6275394;22;8795;-74
2021/09/13 00:21:06;;;;;;;;;4.75;4.75;;;;;29.26;64.82;98449.25;6275868;22;8790;-74
2021/09/13 00:23:35;;;;;;;;;0.00;0.00;;;;;29.26;65.43;98453.91;6275129;22;8803;-74
2021/09/13 00:26:03;;;;;;;;;4.00;4.00;;;;;29.23;64.49;98458.97;6275376;22;8806;-74
2021/09/13 00:28:32;;;;;;;;;4.20;4.20;;;;;29.22;64.22;98462.84;6276736;22;8799;-74
2021/09/13 00:31:00;;;;;;;;;3.20;3.20;;;;;29.20;64.89;98467.91;6276448;22;8821;-74
2021/09/13 00:33:28;;;;;;;;;3.20;3.20;;;;;29.20;64.95;98467.13;6275515;22;8779;-74
2021/09/13 00:35:57;;;;;;;;;2.00;2.00;;;;;29.14;64.60;98464.06;6282112;22;8864;-74
2021/09/13 00:38:25;;;;;;;;;2.20;2.20;;;;;29.13;65.97;98467.94;6277093;22;8802;-74
2021/09/13 00:40:54;;;;;;;;;2.00;2.00;;;;;29.10;65.25;98463.31;6278529;22;8803;-75
2021/09/13 00:43:23;;;;;;;;;1.80;1.80;;;;;29.07;65.30;98466.81;6283643;22;8802;-75
2021/09/13 00:45:51;;;;;;;;;2.60;2.60;;;;;29.00;64.95;98460.66;6284579;22;9559;-74
2021/09/13 00:48:20;;;;;;;;;2.40;2.40;;;;;29.01;66.02;98470.34;6284676;22;8830;-75
2021/09/13 00:50:49;;;;;;;;;2.40;2.40;;;;;28.99;66.00;98467.25;6282286;22;8783;-75
2021/09/13 00:53:17;;;;;;;;;1.80;1.80;;;;;28.95;66.13;98464.56;6276541;22;8802;-74
2021/09/13 00:55:56;;;;;;;;;1.80;1.80;;;;;28.99;66.37;98475.41;6275265;22;8787;-77
2021/09/13 00:58:26;;;;;;;;;1.20;1.20;;;;;28.96;66.89;98476.97;6275756;22;8806;-77
2021/09/13 01:00:56;;;;;;;;;2.40;2.40;;;;;28.96;66.13;98479.69;6275249;22;8795;-77
2021/09/13 01:03:25;;;;;;;;;2.00;2.00;;;;;28.97;66.18;98477.72;6275425;22;8830;-75
2021/09/13 01:05:54;;;;;;;;;2.00;2.00;;;;;28.94;66.00;98471.16;6275284;22;8790;-78
2021/09/13 01:08:23;;;;;;;;;2.00;2.00;;;;;28.96;65.01;98471.53;6248700;22;8791;-76
2021/09/13 01:10:55;;;;;;;;;3.00;3.00;;;;;28.95;64.51;98464.56;6248130;22;8921;-75
2021/09/13 01:13:24;;;;;;;;;1.80;1.80;;;;;28.93;66.02;98464.19;6274748;22;8812;-73
2021/09/13 01:15:53;;;;;;;;;1.80;1.80;;;;;28.95;66.45;98461.06;6248437;22;8904;-77
2021/09/13 01:18:21;;;;;;;;;1.80;1.80;;;;;28.93;66.94;98458.75;6247243;22;8822;-73
2021/09/13 01:20:50;;;;;;;;;1.80;1.80;;;;;28.95;65.83;98456.41;6273665;22;8799;-74
2021/09/13 01:23:31;;;;;;;;;2.40;2.40;;;;;28.97;64.45;98458.72;6273289;22;8802;-74
2021/09/13 01:26:00;;;;;;;;;2.80;2.80;;;;;28.98;64.33;98465.69;6274707;22;8799;-73
2021/09/13 01:28:29;;;;;;;;;2.80;2.80;;;;;28.95;64.53;98464.56;6274086;22;8810;-75
2021/09/13 01:30:58;;;;;;;;;2.80;2.80;;;;;28.91;65.87;98471.94;6275188;22;8891;-76
2021/09/13 01:33:26;;;;;;;;;0.00;0.00;;;;;28.85;65.87;98465.38;6247457;22;8795;-76
2021/09/13 01:35:55;;;;;;;;;2.00;2.00;;;;;28.92;65.91;98478.91;6276119;22;8884;-75
2021/09/13 01:38:27;;;;;;;;;2.00;2.00;;;;;28.97;65.08;98483.94;6276545;22;9536;-77
2021/09/13 01:40:56;;;;;;;;;2.00;2.00;;;;;28.89;65.26;98464.19;6275911;22;8883;-77
2021/09/13 01:43:24;;;;;;;;;0.80;0.80;;;;;28.89;66.12;98455.28;6275406;22;9516;-74
2021/09/13 01:45:53;;;;;;;;;2.00;2.00;;;;;29.11;66.98;98485.81;6276840;22;8795;-75
2021/09/13 01:48:21;;;;;;;;;2.20;2.20;;;;;29.12;66.33;98490.06;6276296;22;8810;-78
2021/09/13 01:50:50;;;;;;;;;3.40;3.40;;;;;29.09;66.17;98478.06;6276931;22;8795;-78
2021/09/13 01:53:19;;;;;;;;;2.00;2.00;;;;;29.08;65.48;98481.16;6278022;22;8806;-76
2021/09/13 01:55:48;;;;;;;;;3.00;3.00;;;;;29.03;65.99;98481.59;6277057;22;8802;-78
2021/09/13 01:58:17;;;;;;;;;3.00;3.00;;;;;29.15;66.77;98498.19;6276266;22;8807;-73
2021/09/13 02:00:46;;;;;;;;;3.00;3.00;;;;;29.07;65.45;98482.34;6275503;22;8875;-75
2021/09/13 02:03:14;;;;;;;;;3.80;3.80;;;;;29.15;64.95;98492.00;6276574;22;8909;-76
2021/09/13 02:05:43;;;;;;;;;3.00;3.00;;;;;29.09;66.03;98485.44;6275168;22;8815;-77
2021/09/13 02:08:12;;;;;;;;;3.20;3.20;;;;;29.11;66.05;98488.53;6270601;22;8833;-76
2021/09/13 02:10:40;;;;;;;;;3.00;3.00;;;;;29.14;66.11;98493.16;6275548;22;8891;-77
2021/09/13 02:13:09;;;;;;;;;4.75;4.75;;;;;29.12;65.63;98487.34;6276252;22;8799;-76
2021/09/13 02:15:37;;;;;;;;;4.00;4.00;;;;;29.14;66.84;98488.50;6276195;22;8860;-74
2021/09/13 02:18:06;;;;;;;;;5.00;5.00;;;;;29.05;65.63;98477.31;6276338;22;8795;-76
2021/09/13 02:20:34;;;;;;;;;4.00;4.00;;;;;29.16;66.57;98488.88;6275868;22;8864;-75
2021/09/13 02:23:03;;;;;;;;;5.20;5.20;;;;;29.17;65.67;98490.44;6276085;22;9653;-72
2021/09/13 02:25:32;;;;;;;;;5.00;5.00;;;;;29.22;65.75;98489.25;6276990;22;8823;-78
2021/09/13 02:28:00;;;;;;;;;4.40;4.40;;;;;29.25;65.27;98490.38;6276937;22;8795;-77
2021/09/13 02:30:32;;;;;;;;;4.00;4.00;;;;;29.26;66.85;98481.06;6251948;22;8846;-77
2021/09/13 02:33:00;;;;;;;;;4.80;4.80;;;;;29.15;65.97;98462.88;6276615;22;8787;-77
2021/09/13 02:35:29;;;;;;;;;4.40;4.40;;;;;29.04;66.53;98443.16;6275068;22;8795;-76
2021/09/13 02:37:58;;;;;;;;;4.80;4.80;;;;;29.31;64.62;98480.66;6275874;22;8787;-77
2021/09/13 02:40:26;;;;;;;;;4.00;4.00;;;;;29.32;66.14;98474.81;6284152;22;8802;-77
2021/09/13 02:42:55;;;;;;;;;4.40;4.40;;;;;29.26;65.91;98460.09;6275927;22;8825;-77
2021/09/13 02:45:24;;;;;;;;;4.40;4.40;;;;;29.31;64.66;98462.41;6283972;22;8821;-77
2021/09/13 02:47:53;;;;;;;;;5.00;5.00;;;;;29.46;65.19;98476.69;6276162;22;8831;-77
2021/09/13 02:50:21;;;;;;;;;4.60;4.60;;;;;29.49;65.24;98479.38;6277078;22;8892;-77
2021/09/13 02:52:50;;;;;;;;;3.80;3.80;;;;;29.49;66.29;98481.34;6279554;22;8795;-78
2021/09/13 02:55:18;;;;;;;;;3.00;3.00;;;;;29.57;64.90;98480.13;6277080;22;8798;-77
2021/09/13 02:57:47;;;;;;;;;4.00;4.00;;;;;29.54;63.92;98475.47;6275630;22;8916;-77
2021/09/13 03:00:19;;;;;;;;;3.40;3.40;;;;;29.60;64.62;98478.53;6280168;22;8798;-77
2021/09/13 03:02:48;;;;;;;;;4.40;4.40;;;;;29.62;65.07;98468.03;6277042;22;9491;-76
2021/09/13 03:05:17;;;;;;;;;3.20;3.20;;;;;29.60;64.52;98460.28;6277223;22;8818;-76
2021/09/13 03:07:46;;;;;;;;;2.60;2.60;;;;;29.68;63.62;98452.84;6276348;22;8794;-76
2021/09/13 03:10:15;;;;;;;;;2.80;2.80;;;;;29.71;64.77;98458.25;6274407;22;8814;-76
2021/09/13 03:12:44;;;;;;;;;2.80;2.80;;;;;29.75;63.84;98455.50;6253535;22;8852;-78
2021/09/13 03:15:13;;;;;;;;;3.40;3.40;;;;;29.83;63.32;98462.44;6276682;22;8795;-76
2021/09/13 09:24:49;;;;;;;;;3.00;3.00;;;;;31.06;61.18;98101.88;6298904;22;8745;-75
2021/09/13 09:27:18;;;;;;;;;2.60;2.60;;;;;31.03;61.25;98117.13;6305411;22;8828;-76
2021/09/13 09:29:47;;;;;;;;;3.00;3.00;;;;;30.93;61.78;98123.53;6308293;22;8811;-76
2021/09/13 09:32:24;;;;;;;;;3.80;3.80;;;;;31.00;61.66;98131.56;6307528;22;8812;-76
2021/09/13 09:34:55;;;;;;;;;2.00;2.00;;;;;31.00;61.17;98131.56;6313581;22;8815;-73
2021/09/13 09:37:25;;;;;;;;;1.60;1.60;;;;;30.99;61.18;98134.72;6307672;22;8835;-76
2021/09/13 09:40:01;;;;;;;;;2.80;2.80;;;;;30.98;61.74;98117.59;6307816;22;8824;-75
2021/09/13 09:42:35;;;;;;;;;2.00;2.00;;;;;30.97;60.85;98110.63;6308084;22;8781;-75
2021/09/13 09:45:06;;;;;;;;;2.00;2.00;;;;;30.98;60.35;98106.69;6308487;22;8781;-75
2021/09/13 09:47:35;;;;;;;;;1.60;1.60;;;;;30.97;60.57;98105.16;6308035;22;8796;-76
2021/09/13 09:50:03;;;;;;;;;2.80;1.80;;;;;30.96;61.05;98113.75;6281203;22;8866;-75
2021/09/13 09:52:50;;;;;;;;;3.00;2.00;;;;;30.96;61.35;98114.53;6308053;22;8811;-76
2021/09/13 09:55:20;;;;;;;;;3.20;3.20;;;;;30.95;62.09;98115.72;6307703;22;8792;-75
2021/09/13 09:58:05;;;;;;;;;2.60;2.60;;;;;30.94;62.18;98116.13;6308095;22;8846;-76
2021/09/13 10:00:37;;;;;;;;;2.60;2.60;;;;;30.92;61.29;98129.41;6308012;22;8780;-76
2021/09/13 10:03:07;;;;;;;;;2.00;2.00;;;;;30.90;60.99;98137.97;6307693;22;8870;-76
2021/09/13 10:05:36;;;;;;;;;2.40;2.40;;;;;30.89;60.78;98136.44;6307946;22;8777;-76
2021/09/13 10:08:06;;;;;;;;;3.00;3.00;;;;;30.82;60.90;98139.28;6307816;22;8792;-76
2021/09/13 10:10:34;;;;;;;;;3.20;3.20;;;;;30.80;61.06;98136.97;6307829;22;8846;-76
2021/09/13 10:13:03;;;;;;;;;3.20;3.20;;;;;30.76;61.35;98132.78;6307648;22;8800;-76
2021/09/13 10:15:31;;;;;;;;;3.60;3.60;;;;;30.76;62.14;98133.56;6307644;22;8799;-76
2021/09/13 10:18:00;;;;;;;;;3.80;3.80;;;;;30.76;61.72;98139.00;6307647;22;8769;-76
2021/09/13 10:20:29;;;;;;;;;2.80;2.80;;;;;30.72;61.29;98149.19;6307584;22;8811;-76
2021/09/13 10:22:58;;;;;;;;;3.40;3.40;;;;;30.67;61.55;98157.81;6307965;22;8784;-76
2021/09/13 10:25:31;;;;;;;;;2.00;2.00;;;;;30.57;61.71;98160.69;6307673;22;8854;-75
2021/09/13 10:28:05;;;;;;;;;3.40;3.40;;;;;30.53;61.15;98168.91;6307380;22;8784;-76
2021/09/13 10:30:53;;;;;;;;;2.60;2.60;;;;;30.47;61.38;98173.28;6307622;22;8788;-76
2021/09/13 10:33:57;;;;;;;;;3.80;3.80;;;;;30.43;61.87;98169.88;6307817;22;8902;-76
2021/09/13 10:36:58;;;;;;;;;3.80;3.80;;;;;30.41;62.02;98178.44;6307493;22;8788;-76
2021/09/13 10:39:52;;;;;;;;;3.00;3.00;;;;;30.39;61.64;98190.91;6307521;22;8792;-75
2021/09/13 10:42:30;;;;;;;;;3.60;3.60;;;;;30.35;61.86;98192.91;6307624;22;8781;-76
2021/09/13 10:45:30;;;;;;;;;0.40;0.40;;;;;30.35;62.13;98201.84;6307554;22;8805;-76
2021/09/13 10:48:16;;;;;;;;;4.40;4.40;;;;;30.35;62.29;98215.47;6307542;22;8800;-75
2021/09/13 10:50:56;;;;;;;;;3.20;3.20;;;;;30.33;61.82;98211.59;6307700;22;8861;-76
2021/09/13 10:53:25;;;;;;;;;2.80;2.80;;;;;30.30;62.04;98218.66;6307306;22;8777;-75
2021/09/13 10:56:05;;;;;;;;;5.00;4.20;;;;;30.28;62.28;98222.97;6307326;22;8815;-76
2021/09/13 10:58:43;;;;;;;;;4.00;4.00;;;;;30.27;62.47;98226.84;6308237;22;8801;-76
2021/09/13 11:01:27;;;;;;;;;4.00;4.00;;;;;30.24;62.95;98228.44;6307277;22;8784;-75
2021/09/13 11:04:03;;;;;;;;;4.80;4.80;;;;;30.23;62.94;98232.34;6307822;22;8773;-76
2021/09/13 11:06:43;;;;;;;;;3.80;3.80;;;;;30.21;62.62;98242.88;6306851;22;8807;-76
2021/09/13 11:09:20;;;;;;;;;3.40;3.40;;;;;30.19;62.38;98250.66;6307676;22;8880;-75
2021/09/13 11:11:56;;;;;;;;;3.20;3.20;;;;;30.12;62.34;98253.50;6280318;22;8815;-75
2021/09/13 11:14:26;;;;;;;;;3.20;3.20;;;;;30.12;62.71;98272.53;6307193;22;8796;-75
2021/09/13 11:17:00;;;;;;;;;6.00;6.00;;;;;30.11;63.48;98281.88;6307130;22;8789;-75
2021/09/13 11:19:30;;;;;;;;;5.80;5.80;;;;;30.09;62.85;98292.38;6306925;22;8809;-76
2021/09/13 11:22:04;;;;;;;;;5.00;5.00;;;;;30.01;62.44;98294.41;6307083;22;8801;-76
2021/09/13 11:24:39;;;;;;;;;4.80;4.80;;;;;30.01;62.62;98305.28;6307103;22;8799;-76
2021/09/13 11:27:13;;;;;;;;;4.00;4.00;;;;;29.96;63.49;98315.81;6306698;22;8797;-75
2021/09/13 11:29:46;;;;;;;;;3.00;3.00;;;;;29.91;63.21;98311.59;6307021;22;8792;-76
2021/09/13 11:32:17;;;;;;;;;6.40;6.40;;;;;29.90;64.01;98322.91;6307047;22;8807;-75
2021/09/13 11:34:49;;;;;;;;;7.20;7.20;;;;;29.87;63.64;98338.09;6307266;22;8789;-75
2021/09/13 11:37:23;;;;;;;;;6.40;6.40;;;;;29.81;62.96;98340.47;6306891;22;8902;-75
2021/09/13 11:40:12;;;;;;;;;5.60;5.60;;;;;29.75;62.93;98368.50;6306563;22;8859;-75
2021/09/13 11:42:40;;;;;;;;;2.60;2.60;;;;;29.65;62.25;98380.25;6307175;22;8825;-76
2021/09/13 11:45:12;;;;;;;;;2.40;2.40;;;;;29.54;62.73;98396.66;6306775;22;8797;-75
2021/09/13 11:48:04;;;;;;;;;0.80;0.80;;;;;29.33;62.31;98402.25;6283696;22;8883;-76
2021/09/13 11:50:35;;;;;;;;;2.40;2.40;;;;;29.07;62.44;98430.72;6306905;22;8784;-75
2021/09/13 11:53:14;;;;;;;;;1.00;1.00;;;;;28.74;62.66;98424.69;6306788;22;8797;-75
2021/09/13 11:55:42;;;;;;;;;0.60;0.60;;;;;28.50;63.01;98431.78;6306811;22;8799;-76
2021/09/13 11:58:11;;;;;;;;;3.80;3.80;;;;;28.25;63.30;98415.59;6306776;22;8789;-76
2021/09/13 12:00:39;;;;;;;;;5.75;5.75;;;;;28.07;63.29;98428.38;6306708;22;9600;-76
2021/09/13 12:03:09;;;;;;;;;4.00;4.00;;;;;27.81;63.90;98437.72;6306694;22;8792;-75
2021/09/13 12:05:43;;;;;;;;;4.00;4.00;;;;;27.60;63.67;98443.91;6306677;22;8789;-76
2021/09/13 12:08:18;;;;;;;;;3.50;3.50;;;;;27.43;64.12;98441.16;6306535;22;8816;-75
2021/09/13 12:10:49;;;;;;;;;4.50;4.50;;;;;27.30;64.19;98449.66;6306992;22;8891;-75
2021/09/13 12:13:23;;;;;;;;;3.75;3.75;;;;;27.14;64.48;98449.28;6306509;22;8815;-75
2021/09/13 12:15:52;;;;;;;;;5.00;5.00;;;;;27.08;64.78;98467.06;6306599;22;8781;-75
2021/09/13 12:18:22;;;;;;;;;4.50;4.50;;;;;26.99;64.86;98466.63;6306518;22;8879;-75
2021/09/13 12:20:52;;;;;;;;;5.00;5.00;;;;;26.92;65.17;98480.13;6279820;22;8853;-75
2021/09/13 12:23:25;;;;;;;;;5.00;5.00;;;;;26.86;64.84;98485.13;6306458;22;8800;-75
2021/09/13 12:26:06;;;;;;;;;3.00;3.00;;;;;26.79;65.03;98492.44;6306269;22;8793;-75
2021/09/13 12:28:36;;;;;;;;;3.50;3.50;;;;;26.68;66.39;98488.91;6306509;22;8781;-76
2021/09/13 12:31:07;;;;;;;;;3.75;3.75;;;;;26.63;66.61;98490.06;6306566;22;8792;-75
2021/09/13 12:33:55;;;;;;;;;3.75;3.75;;;;;26.59;65.53;98492.75;6306573;22;8784;-75
2021/09/13 12:36:25;;;;;;;;;1.00;1.00;;;;;26.51;65.79;98491.16;6306499;22;8808;-76
2021/09/13 12:38:56;;;;;;;;;2.50;2.50;;;;;26.40;66.14;98494.94;6306273;22;8792;-75
2021/09/13 12:41:36;;;;;;;;;4.00;3.75;;;;;26.25;66.36;98510.28;6306484;22;8878;-76
2021/09/13 12:44:21;;;;;;;;;3.00;3.00;;;;;26.07;66.99;98503.97;6306456;22;8776;-76
2021/09/13 12:46:55;;;;;;;;;3.00;3.00;;;;;25.92;67.21;98498.47;6279563;22;8840;-75
2021/09/13 12:49:27;;;;;;;;;3.25;3.25;;;;;25.85;67.43;98514.63;6306356;22;8784;-75
2021/09/13 12:52:02;;;;;;;;;1.75;1.75;;;;;25.79;67.69;98513.44;6306372;22;8816;-75
2021/09/13 12:54:33;;;;;;;;;2.50;2.50;;;;;25.59;67.90;98487.75;6306375;22;8834;-75
2021/09/13 12:57:03;;;;;;;;;3.25;3.25;;;;;25.69;67.74;98522.22;6307290;22;8862;-75
2021/09/13 12:59:33;;;;;;;;;3.00;3.00;;;;;25.68;68.41;98504.44;6279433;22;9508;-76
2021/09/13 13:02:19;;;;;;;;;2.00;2.00;;;;;25.70;69.71;98509.47;6306178;22;8803;-75
2021/09/13 13:04:47;;;;;;;;;3.25;3.25;;;;;25.66;69.65;98506.75;6306308;22;8792;-75
2021/09/13 13:07:18;;;;;;;;;2.25;2.25;;;;;25.61;70.58;98498.94;6306241;22;8854;-76
2021/09/13 13:09:47;;;;;;;;;2.00;2.00;;;;;25.54;70.99;98494.25;6306312;22;8784;-76
2021/09/13 13:12:15;;;;;;;;;2.00;2.00;;;;;25.46;71.22;98497.25;6306377;22;8789;-76
2021/09/13 13:14:49;;;;;;;;;2.00;2.00;;;;;25.38;72.48;98488.31;6306319;22;8781;-75
2021/09/13 13:17:17;;;;;;;;;3.00;3.00;;;;;25.39;70.93;98475.59;6306289;22;8789;-75
2021/09/13 13:19:45;;;;;;;;;2.00;2.00;;;;;25.43;71.43;98468.31;6306287;22;8773;-75
2021/09/13 13:22:16;;;;;;;;;3.00;3.00;;;;;25.53;71.77;98478.44;6306253;22;8877;-75
2021/09/13 13:24:45;;;;;;;;;2.00;2.00;;;;;25.60;70.83;98476.56;6306511;22;8800;-75
2021/09/13 13:27:14;;;;;;;;;2.50;2.50;;;;;25.74;69.63;98485.97;6305994;22;8860;-75
2021/09/13 13:29:44;;;;;;;;;2.00;2.00;;;;;25.85;69.30;98490.31;6306565;22;8799;-75
2021/09/13 13:32:13;;;;;;;;;3.25;3.25;;;;;25.94;70.62;98495.41;6308673;22;8789;-75
2021/09/13 13:34:41;;;;;;;;;1.25;1.25;;;;;26.05;69.87;98493.53;6308919;22;8788;-76
2021/09/13 13:37:11;;;;;;;;;4.00;4.00;;;;;26.17;70.45;98500.56;6308285;22;8808;-76
2021/09/13 13:39:45;;;;;;;;;2.75;2.75;;;;;26.26;70.30;98501.78;6308142;22;8883;-76
2021/09/13 13:42:13;;;;;;;;;4.50;4.50;;;;;26.36;70.26;98503.03;6308071;22;8792;-76
2021/09/13 13:44:42;;;;;;;;;3.00;3.00;;;;;26.45;68.59;98503.47;6307963;22;8804;-76
2021/09/13 13:47:11;;;;;;;;;1.75;1.75;;;;;26.50;69.69;98511.22;6307821;22;8792;-75
2021/09/13 13:49:39;;;;;;;;;2.75;2.75;;;;;26.54;69.40;98505.84;6307917;22;8791;-75
2021/09/13 13:52:07;;;;;;;;;2.00;2.00;;;;;26.59;69.69;98503.56;6307997;22;8838;-75
2021/09/13 13:54:36;;;;;;;;;2.50;2.50;;;;;26.65;69.04;98501.28;6281428;22;8777;-75
2021/09/13 13:57:05;;;;;;;;;3.00;3.00;;;;;26.63;69.14;98493.53;6308817;22;8827;-76
2021/09/13 13:59:36;;;;;;;;;2.50;2.50;;;;;26.69;68.87;98495.88;6307900;22;8784;-75
2021/09/13 14:02:05;;;;;;;;;3.00;3.00;;;;;26.76;68.57;98506.72;6307905;22;8797;-75
2021/09/13 14:04:34;;;;;;;;;2.75;2.75;;;;;26.82;68.55;98516.03;6307834;22;8835;-76
2021/09/13 14:07:03;;;;;;;;;3.00;3.00;;;;;26.88;68.70;98511.81;6307930;22;8789;-75
2021/09/13 14:09:31;;;;;;;;;2.25;2.25;;;;;26.97;68.61;98525.81;6307319;22;8815;-75
2021/09/13 14:12:00;;;;;;;;;3.00;3.00;;;;;27.05;68.53;98521.97;6307781;22;8877;-75
2021/09/13 14:14:29;;;;;;;;;2.50;2.50;;;;;27.09;68.35;98513.84;6307733;22;8829;-75
2021/09/13 14:16:58;;;;;;;;;0.75;0.75;;;;;27.14;68.17;98513.47;6307939;22;8777;-75
2021/09/13 14:19:26;;;;;;;;;2.25;2.25;;;;;27.16;68.16;98517.34;6307583;22;8792;-75
2021/09/13 14:21:55;;;;;;;;;1.75;1.75;;;;;27.13;68.48;98517.34;6308001;22;8797;-75
2021/09/13 14:24:24;;;;;;;;;3.50;3.50;;;;;27.21;68.04;98525.13;6307645;22;8801;-75
2021/09/13 14:26:52;;;;;;;;;1.00;1.00;;;;;27.22;67.92;98523.19;6307355;22;8797;-75
2021/09/13 14:29:21;;;;;;;;;2.00;2.00;;;;;27.19;67.60;98532.06;6307452;22;8832;-75
2021/09/13 14:31:53;;;;;;;;;2.50;2.50;;;;;27.17;67.34;98540.56;6307393;22;9506;-75
2021/09/13 14:34:23;;;;;;;;;4.50;4.50;;;;;27.10;67.32;98529.72;6307553;22;8800;-75
2021/09/13 14:36:51;;;;;;;;;1.75;1.75;;;;;27.10;67.78;98537.84;6307418;22;8773;-75
2021/09/13 14:39:20;;;;;;;;;2.00;2.00;;;;;27.10;67.82;98540.53;6307611;22;8796;-75
2021/09/13 14:41:49;;;;;;;;;3.00;3.00;;;;;27.08;67.78;98534.75;6306813;22;8776;-75
2021/09/13 14:44:18;;;;;;;;;2.00;2.00;;;;;27.14;67.79;98535.16;6307504;22;8861;-75
2021/09/13 14:46:47;;;;;;;;;3.00;3.00;;;;;27.17;67.86;98534.38;6307446;22;8800;-76
2021/09/13 14:49:18;;;;;;;;;2.25;2.25;;;;;27.22;67.74;98536.72;6307307;22;8811;-75
2021/09/13 14:51:46;;;;;;;;;2.00;2.00;;;;;27.25;67.06;98544.84;6307412;22;8846;-75
2021/09/13 14:54:17;;;;;;;;;3.00;3.00;;;;;27.20;67.20;98542.53;6307355;22;8881;-75
2021/09/13 14:56:45;;;;;;;;;2.00;2.00;;;;;27.08;67.43;98539.38;6307381;22;8804;-75
2021/09/13 14:59:16;;;;;;;;;3.00;3.00;;;;;26.99;67.77;98550.56;6308169;22;8881;-75
2021/09/13 15:01:44;;;;;;;;;2.50;2.50;;;;;26.91;68.11;98552.44;6307488;22;9509;-75
2021/09/13 15:04:13;;;;;;;;;2.25;2.25;;;;;26.88;68.27;98563.22;6307871;22;8784;-76
2021/09/13 15:06:41;;;;;;;;;1.00;1.00;;;;;26.86;68.77;98569.03;6307258;22;8800;-75
2021/09/13 15:09:10;;;;;;;;;2.25;2.25;;;;;26.84;68.82;98575.97;6307182;22;8796;-75
2021/09/13 15:11:39;;;;;;;;;1.75;1.75;;;;;26.83;68.75;98587.94;6307243;22;8781;-75
2021/09/13 15:14:07;;;;;;;;;3.00;3.00;;;;;26.83;68.90;98588.72;6307289;22;8804;-76
2021/09/13 15:16:44;;;;;;;;;2.00;2.00;;;;;26.84;68.87;98590.28;6307085;22;9424;-75
2021/09/13 15:19:12;;;;;;;;;2.50;2.50;;;;;26.87;69.20;98592.22;6307108;22;9567;-76
2021/09/13 15:21:41;;;;;;;;;2.75;2.75;;;;;26.93;69.34;98596.13;6307189;22;8804;-75
2021/09/13 15:24:09;;;;;;;;;4.00;3.25;;;;;26.99;69.34;98590.38;6307310;22;8858;-75
2021/09/13 15:26:38;;;;;;;;;3.00;3.00;;;;;27.08;69.07;98599.72;6306887;22;8869;-76
2021/09/13 15:29:06;;;;;;;;;2.50;2.50;;;;;27.12;68.64;98603.22;6306918;22;8788;-76
2021/09/13 15:31:35;;;;;;;;;4.50;4.50;;;;;27.18;68.36;98609.81;6307129;22;8842;-75
2021/09/13 15:34:06;;;;;;;;;4.00;4.00;;;;;27.15;68.30;98604.38;6306926;22;8777;-75
2021/09/13 15:36:34;;;;;;;;;2.00;2.00;;;;;27.16;68.09;98617.53;6306868;22;8904;-75
2021/09/13 15:39:03;;;;;;;;;2.75;2.75;;;;;27.10;68.66;98621.00;6306702;22;8785;-76
2021/09/13 15:41:32;;;;;;;;;3.00;3.00;;;;;27.01;68.82;98626.75;6306968;22;8813;-76
2021/09/13 15:44:00;;;;;;;;;3.00;3.00;;;;;26.94;68.95;98627.47;6280506;22;9498;-75
2021/09/13 15:46:29;;;;;;;;;2.25;2.25;;;;;26.88;68.17;98628.19;6306715;22;8870;-76
2021/09/13 15:48:57;;;;;;;;;2.25;2.25;;;;;26.90;68.06;98631.28;6306960;22;9486;-75
2021/09/13 15:51:26;;;;;;;;;1.50;1.50;;;;;26.90;67.85;98631.28;6306912;22;8789;-76
2021/09/13 15:53:54;;;;;;;;;2.50;2.50;;;;;26.89;68.62;98622.41;6307606;22;8882;-76
2021/09/13 15:56:23;;;;;;;;;2.25;2.25;;;;;26.92;68.08;98629.00;6306806;22;8879;-76
2021/09/13 15:58:51;;;;;;;;;3.00;3.00;;;;;26.92;67.97;98621.66;6306748;22;8852;-76
2021/09/13 16:01:19;;;;;;;;;4.75;3.00;;;;;26.92;67.75;98618.16;6306531;22;8781;-75
2021/09/13 16:03:48;;;;;;;;;2.00;2.00;;;;;26.90;67.92;98615.06;6306672;22;8776;-75
2021/09/13 16:06:18;;;;;;;;;2.00;2.00;;;;;26.92;68.57;98613.53;6306664;22;8792;-76
2021/09/13 16:08:46;;;;;;;;;1.25;1.25;;;;;26.91;67.69;98609.25;6306455;22;8866;-76
2021/09/13 16:11:15;;;;;;;;;1.75;1.75;;;;;26.92;67.82;98618.94;6306647;22;8799;-75
2021/09/13 16:13:44;;;;;;;;;1.75;1.75;;;;;26.93;67.52;98609.66;6306713;22;9422;-75
2021/09/13 16:16:12;;;;;;;;;2.00;2.00;;;;;26.92;67.92;98601.91;6306554;22;8797;-75
2021/09/13 16:18:41;;;;;;;;;2.25;2.25;;;;;26.92;68.07;98599.22;6306393;22;8875;-75
2021/09/13 16:21:10;;;;;;;;;2.00;2.00;;;;;26.90;67.40;98594.19;6306646;22;8773;-75
2021/09/13 16:23:39;;;;;;;;;1.75;1.75;;;;;26.87;67.30;98586.03;6306355;22;8803;-75
2021/09/13 16:26:11;;;;;;;;;2.25;2.25;;;;;26.86;67.38;98598.03;6279504;22;8869;-75
2021/09/13 16:28:39;;;;;;;;;3.00;3.00;;;;;26.90;67.97;98599.59;6306621;22;8811;-75
2021/09/13 16:31:08;;;;;;;;;2.75;2.75;;;;;26.91;67.95;98603.06;6306479;22;8887;-76
2021/09/13 16:33:36;;;;;;;;;2.75;2.75;;;;;26.88;68.94;98603.84;6306525;22;8793;-76
2021/09/13 16:36:05;;;;;;;;;3.25;3.25;;;;;26.86;69.01;98598.78;6306427;22;8781;-75
2021/09/13 16:38:52;;;;;;;;;2.75;2.75;;;;;26.76;68.86;98593.31;6306556;22;8805;-76
2021/09/13 16:41:20;;;;;;;;;3.50;3.50;;;;;26.61;68.79;98604.06;6306794;22;8874;-75
2021/09/13 16:43:49;;;;;;;;;4.50;4.50;;;;;26.47;69.59;98593.13;6306504;22;8785;-75
2021/09/13 16:46:18;;;;;;;;;2.50;2.50;;;;;26.40;69.95;98592.31;6306457;22;8780;-76
2021/09/13 16:48:47;;;;;;;;;3.00;3.00;;;;;26.31;68.97;98584.47;6306327;22;9521;-76
2021/09/13 16:51:15;;;;;;;;;3.25;3.25;;;;;26.31;68.00;98589.88;6306360;22;9554;-75
2021/09/13 16:53:44;;;;;;;;;4.75;4.75;;;;;26.26;69.44;98582.91;6306392;22;8850;-75
2021/09/13 16:56:12;;;;;;;;;3.00;3.00;;;;;26.35;68.27;98595.34;6306257;22;8792;-75
2021/09/13 16:58:41;;;;;;;;;3.00;3.00;;;;;26.35;67.48;98598.06;6306804;22;8788;-76
2021/09/13 17:01:10;;;;;;;;;3.25;3.25;;;;;26.33;68.41;98593.81;6306370;22;8785;-75
2021/09/13 17:03:49;;;;;;;;;1.75;1.75;;;;;26.35;67.68;98589.94;6306192;22;8781;-76
2021/09/13 17:06:21;;;;;;;;;4.25;4.25;;;;;26.29;68.26;98573.25;6308072;22;8844;-75
2021/09/13 17:08:50;;;;;;;;;4.00;4.00;;;;;26.30;67.74;98581.00;6307924;22;9536;-76
2021/09/13 17:11:18;;;;;;;;;5.00;5.00;;;;;26.26;68.84;98579.41;6308880;22;8810;-75
2021/09/13 17:13:47;;;;;;;;;7.00;5.75;;;;;26.24;70.53;98577.09;6308413;22;8815;-75
2021/09/13 17:16:16;;;;;;;;;6.50;6.50;;;;;26.20;71.56;98584.41;6308311;22;8789;-75
2021/09/13 17:18:45;;;;;;;;;7.25;7.25;;;;;26.16;72.59;98582.81;6308253;22;8885;-76
2021/09/13 17:21:18;;;;;;;;;4.50;4.50;;;;;26.09;69.58;98578.13;6308116;22;8801;-76
2021/09/13 17:23:46;;;;;;;;;6.00;6.00;;;;;26.07;70.42;98579.66;6309521;22;9592;-76
2021/09/13 17:26:16;;;;;;;;;5.25;5.25;;;;;26.11;70.65;98575.81;6308051;22;8812;-76
2021/09/13 17:28:44;;;;;;;;;5.75;5.75;;;;;26.09;71.29;98561.13;6307968;22;8797;-76
2021/09/13 17:31:16;;;;;;;;;8.00;6.75;;;;;26.15;72.18;98570.44;6308100;22;8819;-76
2021/09/13 17:33:46;;;;;;;;;7.25;7.25;;;;;26.14;70.80;98571.59;6308197;22;8915;-76
2021/09/13 17:36:17;;;;;;;;;5.50;5.50;;;;;26.07;72.92;98571.53;6309080;22;8804;-76
2021/09/13 17:38:47;;;;;;;;;4.50;4.50;;;;;26.04;71.40;98564.19;6308085;22;8804;-75
2021/09/13 17:41:18;;;;;;;;;5.25;5.25;;;;;25.99;72.70;98566.09;6308084;22;8861;-76
2021/09/13 17:43:49;;;;;;;;;4.00;4.00;;;;;25.98;70.27;98563.78;6308357;22;8781;-76
2021/09/13 17:46:19;;;;;;;;;4.50;4.50;;;;;25.99;72.39;98566.09;6308356;22;8785;-75
2021/09/13 17:48:49;;;;;;;;;6.50;5.75;;;;;25.96;71.82;98558.75;6307680;22;8877;-76
2021/09/13 17:51:18;;;;;;;;;5.00;5.00;;;;;25.91;69.74;98545.56;6308040;22;8788;-75
2021/09/13 17:53:47;;;;;;;;;1.25;1.25;;;;;25.87;73.31;98544.75;6308165;22;8793;-75
2021/09/13 17:56:18;;;;;;;;;4.25;4.25;;;;;25.91;69.45;98550.97;6308164;22;8781;-76
2021/09/13 17:58:48;;;;;;;;;2.00;2.00;;;;;25.95;70.28;98549.06;6281173;22;8789;-75
2021/09/13 18:01:19;;;;;;;;;3.50;3.00;;;;;26.00;70.77;98547.97;6307809;22;8788;-76
2021/09/13 18:03:49;;;;;;;;;2.25;2.25;;;;;26.07;69.35;98549.91;6307858;22;8789;-75
2021/09/13 18:06:20;;;;;;;;;2.75;2.75;;;;;26.06;71.11;98530.22;6307876;22;8811;-76